Terminal Aerodrome Forecast
Issued by NWS Cleveland, OH

Home | Current Version | Previous Version | Graphics & Text | Print | Product List | Glossary On
Versions: 1 2 3 4 5 6 7 8 9 10 11 12 13 14 15 16 17
467
FTUS41 KCLE 010207 AAA
TAFERI
TAF AMD
KERI 010207Z 0102/0124 27014G24KT 6SM -SHRA BR SCT007 OVC015
      TEMPO 0102/0104 5SM -SHRA BKN007
     FM010400 26014G24KT P6SM BKN050
      TEMPO 0105/0107 SCT050 BKN120
     FM010700 25012G22KT P6SM VCSH BKN015 OVC020=

USA.gov is the U.S. government's official web portal to all federal, state and local government web resources and services.